Portada
METAR-TAF:

METAR-TAF

Aeroports :

Marshfield, Massachusetts, Estats Units d'Amèrica

latitud: 42-05-54N, longitud: 070-40-20W, altitud: 3 m

Observació

L'informe es va fer fa 33 minuts, a les 22:55 UTC
Vent 7 kt del Nord-Est
Temperatura 11°C
Humitat 82%
Pressió 1026 hPa
Visibilitat: 16.1 km
Cel cobert a una alçada de 1600 ft

METAR: KGHG 242255Z AUTO 05007KT 10SM OVC016 11/08 A3031 RMK AO2

Hora: 19:28 (23:28 UTC)


TAF: manca

Observacions i pronòstics meteorològics de més de 4000 aeroports (METAR i TAF).

Les estacions disponibles són els punts grocs i vermells al mapa.

Posi el ratolí al punt desitjat per veure el nom de l'estació.

Feu clic per veure les observacions i els pronòstics meteorològics.

Per canviar el mapa: feu clic els botons verds amb una creu de color negre per apropar; al botó verd amb un guió per allunyar la imatge; o en les fletxes verdes per a mapes adjacents.


METAR-TAF: